createdAt,value
2017-10-19T00:00:09.390Z,6.69
2017-10-19T00:02:41.712Z,6.72
2017-10-19T00:05:38.406Z,6.78
2017-10-19T00:08:15.891Z,6.82
2017-10-19T00:10:45.905Z,6.81
2017-10-19T00:13:15.881Z,6.81
2017-10-19T00:15:44.978Z,6.87
2017-10-19T00:18:15.977Z,6.96
2017-10-19T00:20:45.043Z,6.98
2017-10-19T00:23:18.817Z,6.98
2017-10-19T00:25:47.856Z,7.06
2017-10-19T00:28:18.847Z,6.97
2017-10-19T00:30:48.926Z,6.96
2017-10-19T00:33:18.943Z,7.00
2017-10-19T00:35:47.991Z,6.99
2017-10-19T00:38:17.115Z,7.00
2017-10-19T00:40:47.056Z,6.96
2017-10-19T00:43:32.807Z,6.89
2017-10-19T00:46:03.777Z,6.85
2017-10-19T00:48:32.910Z,6.85
2017-10-19T00:51:30.112Z,6.79
2017-10-19T00:53:59.163Z,6.68
2017-10-19T00:56:40.759Z,6.69
2017-10-19T00:59:11.749Z,6.69
2017-10-19T01:01:44.101Z,6.76
2017-10-19T01:04:25.926Z,6.77
2017-10-19T01:06:54.967Z,6.73
2017-10-19T01:09:38.881Z,6.71
2017-10-19T01:12:12.170Z,6.64
2017-10-19T01:14:42.197Z,6.58
2017-10-19T01:17:28.935Z,6.57
2017-10-19T01:19:57.976Z,6.52
2017-10-19T01:22:40.208Z,6.48
2017-10-19T01:25:24.295Z,6.51
2017-10-19T01:27:53.353Z,6.69
2017-10-19T01:30:23.287Z,6.81
2017-10-19T01:32:53.255Z,6.89
2017-10-19T01:35:30.418Z,6.97
2017-10-19T01:37:59.471Z,6.97
2017-10-19T01:40:41.468Z,6.87
2017-10-19T01:43:23.399Z,6.78
2017-10-19T01:45:52.483Z,6.70
2017-10-19T01:48:40.305Z,6.65
2017-10-19T01:51:13.732Z,6.63
2017-10-19T01:53:43.835Z,6.63
2017-10-19T01:56:16.036Z,6.66
2017-10-19T01:58:45.083Z,6.72
2017-10-19T02:01:21.451Z,6.81
2017-10-19T02:03:51.493Z,6.81
2017-10-19T02:06:20.548Z,6.78
2017-10-19T02:08:50.369Z,6.79
2017-10-19T02:11:19.416Z,6.75
2017-10-19T02:13:48.558Z,6.70
2017-10-19T02:16:20.653Z,6.80
2017-10-19T02:18:49.703Z,6.89
2017-10-19T02:21:19.693Z,6.93
2017-10-19T02:23:48.738Z,6.88
2017-10-19T02:26:17.834Z,6.84
2017-10-19T02:28:46.910Z,6.78
2017-10-19T02:31:23.776Z,6.68
2017-10-19T02:33:52.819Z,6.68
2017-10-19T02:36:39.499Z,6.65
2017-10-19T02:39:08.540Z,6.63
2017-10-19T02:41:40.790Z,6.67
2017-10-19T02:44:09.840Z,6.69
2017-10-19T02:46:39.802Z,6.73
2017-10-19T02:49:12.086Z,6.75
2017-10-19T02:51:41.172Z,6.80
2017-10-19T02:54:10.247Z,6.78
2017-10-19T02:56:40.201Z,6.67
2017-10-19T02:59:24.673Z,6.56
2017-10-19T03:01:53.739Z,6.45
2017-10-19T03:04:35.971Z,6.36
2017-10-19T03:07:14.380Z,6.35
2017-10-19T03:09:43.455Z,6.22
2017-10-19T03:12:20.622Z,6.12
2017-10-19T03:14:51.291Z,6.10
2017-10-19T03:17:39.642Z,6.05
2017-10-19T03:20:10.556Z,6.05
2017-10-19T03:22:40.569Z,6.18
2017-10-19T03:25:23.956Z,6.28
2017-10-19T03:27:53.119Z,6.36
2017-10-19T03:30:26.492Z,6.43
2017-10-19T03:32:55.543Z,6.47
2017-10-19T03:35:24.600Z,6.45
2017-10-19T03:37:53.653Z,6.32
2017-10-19T03:40:27.299Z,6.25
2017-10-19T03:42:56.326Z,6.28
2017-10-19T03:45:40.166Z,6.29
2017-10-19T03:48:11.155Z,6.27
2017-10-19T03:50:40.214Z,6.26
2017-10-19T03:53:40.055Z,6.25
2017-10-19T03:56:09.120Z,6.37
2017-10-19T03:58:41.751Z,6.44
2017-10-19T04:01:11.041Z,6.49
2017-10-19T04:03:41.132Z,6.57
2017-10-19T04:06:14.014Z,6.52
2017-10-19T04:08:43.108Z,6.48
2017-10-19T04:11:15.851Z,6.50
2017-10-19T04:13:57.626Z,6.50
2017-10-19T04:16:40.457Z,6.58
2017-10-19T04:19:17.731Z,6.65
2017-10-19T04:21:46.780Z,6.67
2017-10-19T04:24:26.628Z,6.61
2017-10-19T04:26:55.668Z,6.49
2017-10-19T04:29:41.654Z,6.37
2017-10-19T04:32:36.897Z,6.31
2017-10-19T04:35:16.400Z,6.44
2017-10-19T04:37:45.444Z,6.55
2017-10-19T04:40:15.529Z,6.63
2017-10-19T04:42:44.611Z,6.66
2017-10-19T04:45:13.661Z,6.49
2017-10-19T04:47:42.704Z,6.38
2017-10-19T04:50:11.766Z,6.26
2017-10-19T04:52:40.826Z,6.09
2017-10-19T04:55:26.791Z,5.96
2017-10-19T04:57:55.852Z,5.87
2017-10-19T05:00:24.917Z,5.75
2017-10-19T05:02:53.963Z,5.64
2017-10-19T05:05:27.172Z,5.51
2017-10-19T05:07:56.208Z,5.42
2017-10-19T05:10:26.184Z,5.45
2017-10-19T05:12:56.152Z,5.38
2017-10-19T05:15:26.234Z,5.31
2017-10-19T05:17:55.293Z,5.31
2017-10-19T05:20:36.524Z,5.33
2017-10-19T05:23:06.471Z,5.33
2017-10-19T05:25:39.776Z,5.41
2017-10-19T05:28:15.802Z,5.46
2017-10-19T05:30:44.874Z,5.49
2017-10-19T05:33:13.959Z,5.57
2017-10-19T05:35:43.941Z,5.78
2017-10-19T05:38:13.966Z,5.94
2017-10-19T05:40:43.050Z,6.02
2017-10-19T05:43:25.634Z,6.01
2017-10-19T05:45:55.637Z,5.79
2017-10-19T05:48:33.045Z,5.60
2017-10-19T05:51:15.795Z,5.48
2017-10-19T05:53:45.746Z,5.47
2017-10-19T05:56:16.725Z,5.37
2017-10-19T05:58:45.799Z,5.37
2017-10-19T06:01:15.829Z,5.32
2017-10-19T06:03:44.932Z,5.32
2017-10-19T06:06:39.200Z,5.40
2017-10-19T06:09:17.082Z,5.53
2017-10-19T06:11:46.133Z,5.63
2017-10-19T06:14:19.775Z,5.60
2017-10-19T06:16:48.830Z,5.57
2017-10-19T06:19:21.775Z,5.56
2017-10-19T06:21:57.118Z,5.68
2017-10-19T06:24:26.206Z,5.72
2017-10-19T06:27:15.006Z,5.76
2017-10-19T06:30:05.093Z,5.81
2017-10-19T06:32:34.161Z,5.85
2017-10-19T06:35:14.860Z,5.97
2017-10-19T06:37:47.794Z,6.20
2017-10-19T06:40:16.884Z,6.40
2017-10-19T06:42:50.887Z,6.56
2017-10-19T06:45:20.902Z,6.77
2017-10-19T06:47:49.949Z,7.12
2017-10-19T06:50:19.007Z,7.30
2017-10-19T06:52:51.022Z,7.44
2017-10-19T06:55:20.068Z,7.56
2017-10-19T06:57:53.324Z,7.68
2017-10-19T07:00:26.404Z,7.84
2017-10-19T07:02:55.482Z,7.98
2017-10-19T07:05:24.562Z,8.06
2017-10-19T07:07:53.819Z,8.16
2017-10-19T07:10:26.685Z,8.30
2017-10-19T07:12:55.760Z,8.47
2017-10-19T07:15:33.640Z,8.63
2017-10-19T07:18:09.706Z,8.80
2017-10-19T07:20:38.763Z,8.96
2017-10-19T07:23:17.677Z,9.16
2017-10-19T07:25:57.085Z,9.35
2017-10-19T07:28:26.112Z,9.56
2017-10-19T07:31:11.819Z,9.74
2017-10-19T07:33:40.896Z,9.91
2017-10-19T07:36:23.732Z,10.07
2017-10-19T07:39:02.399Z,10.24
2017-10-19T07:41:31.570Z,10.39
2017-10-19T07:44:02.506Z,10.55
2017-10-19T07:46:31.797Z,10.76
2017-10-19T07:49:02.749Z,10.91
2017-10-19T07:51:31.815Z,11.04
2017-10-19T07:54:02.870Z,11.20
2017-10-19T07:56:35.579Z,11.36
2017-10-19T07:59:16.958Z,11.54
2017-10-19T08:01:58.825Z,11.74
2017-10-19T08:04:27.898Z,11.88
2017-10-19T08:06:57.012Z,12.05
2017-10-19T08:09:26.066Z,12.33
2017-10-19T08:11:57.035Z,12.64
2017-10-19T08:14:26.088Z,12.85
2017-10-19T08:17:03.665Z,13.05
2017-10-19T08:19:34.306Z,13.32
2017-10-19T08:22:22.327Z,13.53
2017-10-19T08:24:59.709Z,13.79
2017-10-19T08:27:29.727Z,14.05
2017-10-19T08:30:01.710Z,14.25
2017-10-19T08:32:30.766Z,14.50
2017-10-19T08:34:59.836Z,14.78
2017-10-19T08:37:28.882Z,15.12
2017-10-19T08:40:22.223Z,15.50
2017-10-19T08:42:55.486Z,16.12
2017-10-19T08:45:24.524Z,17.51
2017-10-19T08:47:57.222Z,19.50
2017-10-19T08:50:26.284Z,21.73
2017-10-19T08:52:59.798Z,22.94
2017-10-19T08:55:28.851Z,23.97
2017-10-19T08:58:01.621Z,25.73
2017-10-19T09:00:30.704Z,26.93
2017-10-19T09:03:04.203Z,26.94
2017-10-19T09:05:34.084Z,28.05
2017-10-19T09:08:06.791Z,29.22
2017-10-19T09:10:36.389Z,29.49
2017-10-19T09:13:05.464Z,29.90
2017-10-19T09:15:35.858Z,30.98
2017-10-19T09:18:13.120Z,32.14
2017-10-19T09:21:03.052Z,33.03
2017-10-19T09:23:32.104Z,33.65
2017-10-19T09:26:04.951Z,34.20
2017-10-19T09:28:34.029Z,33.73
2017-10-19T09:31:05.641Z,33.31
2017-10-19T09:33:35.694Z,30.60
2017-10-19T09:36:09.877Z,31.76
2017-10-19T09:38:38.931Z,32.60
2017-10-19T09:41:22.444Z,33.85
2017-10-19T09:43:59.705Z,34.53
2017-10-19T09:46:28.747Z,35.01
2017-10-19T09:48:59.760Z,35.66
2017-10-19T09:51:28.845Z,36.56
2017-10-19T09:54:11.188Z,36.60
2017-10-19T09:56:40.263Z,36.95
2017-10-19T09:59:21.428Z,38.21
2017-10-19T10:02:21.124Z,38.23
2017-10-19T10:05:06.706Z,38.24
2017-10-19T10:07:35.750Z,38.28
2017-10-19T10:10:21.835Z,38.14
2017-10-19T10:13:00.376Z,38.80
2017-10-19T10:15:29.825Z,39.65
2017-10-19T10:17:59.771Z,40.32
2017-10-19T10:27:09.000Z,40.50
2017-10-19T10:29:38.051Z,40.82
2017-10-19T10:32:19.818Z,41.06
2017-10-19T10:34:48.926Z,40.72
2017-10-19T10:37:17.967Z,40.26
2017-10-19T10:39:47.038Z,40.64
2017-10-19T10:42:16.205Z,40.55
2017-10-19T10:44:46.232Z,40.52
2017-10-19T10:47:15.281Z,40.96
2017-10-19T10:49:44.326Z,41.26
2017-10-19T10:52:13.371Z,41.28
2017-10-19T10:54:42.436Z,41.55
2017-10-19T10:57:11.499Z,40.67
2017-10-19T10:59:40.540Z,40.95
2017-10-19T11:02:10.543Z,40.39
2017-10-19T11:04:40.051Z,40.79
2017-10-19T11:07:09.591Z,40.65
2017-10-19T11:09:38.647Z,40.52
2017-10-19T11:12:07.694Z,41.29
2017-10-19T11:14:36.802Z,41.42
2017-10-19T11:17:05.860Z,41.76
2017-10-19T11:19:34.911Z,42.31
2017-10-19T11:22:03.956Z,42.72
2017-10-19T11:24:33.039Z,42.97
2017-10-19T11:27:02.071Z,42.56
2017-10-19T11:29:31.115Z,42.32
2017-10-19T11:32:00.180Z,41.88
2017-10-19T11:34:29.234Z,40.67
2017-10-19T11:36:58.283Z,40.95
2017-10-19T11:39:27.331Z,40.95
2017-10-19T11:41:56.440Z,40.51
2017-10-19T11:44:25.495Z,40.95
2017-10-19T11:46:54.545Z,40.83
2017-10-19T11:49:23.601Z,40.97
2017-10-19T11:51:52.656Z,41.14
2017-10-19T11:54:21.707Z,40.53
2017-10-19T11:56:50.791Z,41.34
2017-10-19T11:59:19.821Z,41.47
2017-10-19T12:01:48.875Z,41.58
2017-10-19T12:04:17.945Z,41.93
2017-10-19T12:06:46.991Z,41.91
2017-10-19T12:09:16.038Z,40.84
2017-10-19T12:11:46.049Z,40.15
2017-10-19T12:14:15.122Z,40.42
2017-10-19T12:16:44.166Z,40.61
2017-10-19T12:19:13.211Z,39.41
2017-10-19T12:21:42.259Z,39.65
2017-10-19T12:24:11.449Z,40.01
2017-10-19T12:26:40.493Z,40.73
2017-10-19T12:29:10.055Z,40.68
2017-10-19T12:31:39.114Z,41.10
2017-10-19T12:34:08.987Z,40.55
2017-10-19T12:36:39.053Z,41.20
2017-10-19T12:39:08.112Z,40.76
2017-10-19T12:41:37.156Z,40.95
2017-10-19T12:44:06.507Z,40.51
2017-10-19T12:46:35.644Z,40.67
2017-10-19T12:49:06.348Z,40.34
2017-10-19T12:51:35.680Z,39.79
2017-10-19T12:54:04.752Z,39.87
2017-10-19T12:56:33.788Z,39.50
2017-10-19T12:59:03.797Z,39.47
2017-10-19T13:01:32.834Z,38.89
2017-10-19T13:04:01.879Z,39.14
2017-10-19T13:06:30.930Z,38.85
2017-10-19T13:08:59.977Z,38.55
2017-10-19T13:11:29.151Z,38.31
2017-10-19T13:13:58.179Z,38.42
2017-10-19T13:16:26.544Z,37.98
2017-10-19T13:18:54.898Z,38.27
2017-10-19T13:21:23.259Z,38.19
2017-10-19T13:23:52.307Z,36.95
2017-10-19T13:26:21.371Z,36.96
2017-10-19T13:28:51.423Z,36.92
2017-10-19T13:31:27.075Z,36.08
2017-10-19T13:33:56.146Z,35.97
2017-10-19T13:36:25.187Z,35.30
2017-10-19T13:38:54.287Z,35.49
2017-10-19T13:41:23.329Z,35.90
2017-10-19T13:43:52.384Z,36.70
2017-10-19T13:46:25.573Z,37.26
2017-10-19T13:48:54.967Z,38.27
2017-10-19T13:51:24.435Z,38.83
2017-10-19T13:53:53.483Z,39.53
2017-10-19T13:56:22.522Z,39.23
2017-10-19T13:58:51.571Z,39.31
2017-10-19T14:01:20.622Z,38.57
2017-10-19T14:03:51.616Z,38.55
2017-10-19T14:06:20.660Z,38.82
2017-10-19T14:08:49.715Z,39.01
2017-10-19T14:11:18.762Z,38.37
2017-10-19T14:13:50.083Z,37.87
2017-10-19T14:16:19.157Z,38.11
2017-10-19T14:18:48.206Z,37.64
2017-10-19T14:21:17.275Z,37.40
2017-10-19T14:23:46.824Z,36.74
2017-10-19T14:26:16.017Z,36.40
2017-10-19T14:28:45.187Z,36.01
2017-10-19T14:31:14.314Z,35.68
2017-10-19T14:33:43.412Z,35.23
2017-10-19T14:36:12.467Z,34.99
2017-10-19T14:38:42.514Z,34.78
2017-10-19T14:41:11.786Z,34.15
2017-10-19T14:43:40.814Z,33.84
2017-10-19T14:46:10.704Z,32.78
2017-10-19T14:48:40.728Z,31.75
2017-10-19T14:51:10.338Z,31.25
2017-10-19T14:53:39.541Z,30.30
2017-10-19T14:56:15.215Z,30.07
2017-10-19T14:58:44.734Z,29.58
2017-10-19T15:01:13.800Z,29.13
2017-10-19T15:03:42.860Z,28.81
2017-10-19T15:06:11.911Z,28.34
2017-10-19T15:08:40.942Z,27.72
2017-10-19T15:11:11.070Z,27.15
2017-10-19T15:13:40.135Z,26.63
2017-10-19T15:16:09.995Z,26.37
2017-10-19T15:18:39.229Z,25.72
2017-10-19T15:21:08.973Z,25.30
2017-10-19T15:23:38.013Z,25.00
2017-10-19T15:26:07.278Z,24.74
2017-10-19T15:28:36.343Z,24.38
2017-10-19T15:31:05.412Z,24.10
2017-10-19T15:33:34.439Z,23.90
2017-10-19T15:36:03.496Z,23.62
2017-10-19T15:38:32.548Z,23.31
2017-10-19T15:41:01.603Z,23.03
2017-10-19T15:43:30.665Z,22.77
2017-10-19T15:45:59.711Z,22.52
2017-10-19T15:48:28.768Z,22.16
2017-10-19T15:51:14.737Z,21.76
2017-10-19T15:53:43.791Z,21.33
2017-10-19T15:56:12.926Z,20.95
2017-10-19T15:58:41.967Z,20.61
2017-10-19T16:01:11.033Z,20.29
2017-10-19T16:03:40.079Z,20.00
2017-10-19T16:06:09.123Z,19.73
2017-10-19T16:08:38.180Z,19.45
2017-10-19T16:11:07.258Z,19.10
2017-10-19T16:13:36.294Z,18.83
2017-10-19T16:16:05.355Z,18.56
2017-10-19T16:18:34.384Z,18.30
2017-10-19T16:21:03.451Z,18.08
2017-10-19T16:23:32.512Z,17.84
2017-10-19T16:26:01.599Z,17.62
2017-10-19T16:28:30.646Z,17.47
2017-10-19T16:30:59.698Z,17.32
2017-10-19T16:33:28.738Z,17.19
2017-10-19T16:35:57.784Z,17.03
2017-10-19T16:38:26.899Z,16.87
2017-10-19T16:40:56.051Z,16.76
2017-10-19T16:43:25.092Z,16.61
2017-10-19T16:45:54.207Z,16.47
2017-10-19T16:48:24.253Z,16.34
2017-10-19T16:50:53.298Z,16.14
2017-10-19T16:53:22.362Z,16.03
2017-10-19T16:55:51.415Z,15.82
2017-10-19T16:58:20.464Z,15.66
2017-10-19T17:00:53.970Z,15.50
2017-10-19T17:03:23.012Z,15.36
2017-10-19T17:05:52.111Z,15.24
2017-10-19T17:08:21.168Z,15.01
2017-10-19T17:10:50.210Z,14.86
2017-10-19T17:13:19.307Z,14.71
2017-10-19T17:15:48.371Z,14.64
2017-10-19T17:18:17.440Z,14.49
2017-10-19T17:20:46.484Z,14.33
2017-10-19T17:23:15.545Z,14.29
2017-10-19T17:25:44.618Z,14.11
2017-10-19T17:28:13.668Z,14.05
2017-10-19T17:30:42.712Z,13.98
2017-10-19T17:33:11.787Z,13.75
2017-10-19T17:35:43.590Z,13.69
2017-10-19T17:38:12.663Z,13.53
2017-10-19T17:40:41.719Z,13.37
2017-10-19T17:43:10.763Z,13.27
2017-10-19T17:45:39.820Z,13.17
2017-10-19T17:48:08.898Z,13.06
2017-10-19T17:50:37.935Z,13.01
2017-10-19T17:53:06.989Z,13.01
2017-10-19T17:55:36.133Z,12.98
2017-10-19T17:58:05.196Z,12.93
2017-10-19T18:00:34.294Z,12.91
2017-10-19T18:03:03.327Z,12.78
2017-10-19T18:05:32.575Z,12.70
2017-10-19T18:08:01.631Z,12.58
2017-10-19T18:10:30.679Z,12.50
2017-10-19T18:12:59.827Z,12.53
2017-10-19T18:15:28.924Z,12.51
2017-10-19T18:17:57.985Z,12.40
2017-10-19T18:20:27.961Z,12.39
2017-10-19T18:22:57.051Z,12.32
2017-10-19T18:25:26.124Z,12.28
2017-10-19T18:27:55.166Z,12.20
2017-10-19T18:30:24.241Z,12.14
2017-10-19T18:32:53.267Z,12.06
2017-10-19T18:35:23.183Z,12.02
2017-10-19T18:37:57.350Z,11.91
2017-10-19T18:40:26.747Z,11.86
2017-10-19T18:42:55.789Z,11.69
2017-10-19T18:45:24.870Z,11.57
2017-10-19T18:47:53.930Z,11.49
2017-10-19T18:50:23.023Z,11.40
2017-10-19T18:52:52.054Z,11.25
2017-10-19T18:55:22.936Z,11.16
2017-10-19T18:57:51.999Z,11.15
2017-10-19T19:00:21.233Z,11.02
2017-10-19T19:02:50.465Z,10.91
2017-10-19T19:05:19.484Z,10.92
2017-10-19T19:07:48.538Z,10.83
2017-10-19T19:10:17.588Z,10.87
2017-10-19T19:12:47.662Z,10.81
2017-10-19T19:15:16.865Z,10.71
2017-10-19T19:17:45.923Z,10.72
2017-10-19T19:20:15.123Z,10.70
2017-10-19T19:22:44.167Z,10.70
2017-10-19T19:25:13.316Z,10.66
2017-10-19T19:30:23.544Z,10.48
2017-10-19T19:32:52.651Z,10.42
2017-10-19T19:35:22.238Z,10.42
2017-10-19T19:37:51.322Z,10.47
2017-10-19T19:40:20.439Z,10.38
2017-10-19T19:42:49.495Z,10.37
2017-10-19T19:45:18.534Z,10.40
2017-10-19T19:47:47.586Z,10.37
2017-10-19T19:50:16.665Z,10.38
2017-10-19T19:52:46.651Z,10.41
2017-10-19T19:55:15.692Z,10.34
2017-10-19T19:57:44.794Z,10.26
2017-10-19T20:00:13.888Z,10.19
2017-10-19T20:02:42.959Z,10.12
2017-10-19T20:05:12.036Z,10.08
2017-10-19T20:07:41.101Z,10.10
2017-10-19T20:10:10.126Z,9.99
2017-10-19T20:12:41.207Z,9.92
2017-10-19T20:15:11.204Z,9.87
2017-10-19T20:17:40.297Z,9.83
2017-10-19T20:20:09.327Z,9.83
2017-10-19T20:22:38.366Z,9.92
2017-10-19T20:25:07.433Z,9.82
2017-10-19T20:27:37.797Z,9.68
2017-10-19T20:30:16.066Z,9.54
2017-10-19T20:32:45.120Z,9.43
2017-10-19T20:35:14.127Z,9.41
2017-10-19T20:37:43.170Z,9.39
2017-10-19T20:40:12.214Z,9.40
2017-10-19T20:42:41.244Z,9.27
2017-10-19T20:45:10.298Z,9.20
2017-10-19T20:47:39.347Z,9.14
2017-10-19T20:50:08.390Z,9.09
2017-10-19T20:52:37.434Z,9.05
2017-10-19T20:55:06.527Z,9.03
2017-10-19T20:57:35.635Z,9.00
2017-10-19T21:00:04.655Z,8.99
2017-10-19T21:02:33.689Z,9.08
2017-10-19T21:05:02.783Z,9.02
2017-10-19T21:07:31.826Z,8.97
2017-10-19T21:10:00.855Z,8.92
2017-10-19T21:12:29.890Z,8.91
2017-10-19T21:15:00.844Z,8.93
2017-10-19T21:17:29.874Z,8.99
2017-10-19T21:19:58.929Z,8.96
2017-10-19T21:22:34.129Z,8.97
2017-10-19T21:25:03.437Z,8.97
2017-10-19T21:27:32.704Z,8.93
2017-10-19T21:30:01.745Z,8.94
2017-10-19T21:32:30.779Z,8.93
2017-10-19T21:34:59.831Z,8.80
2017-10-19T21:37:28.867Z,8.66
2017-10-19T21:39:57.912Z,8.57
2017-10-19T21:42:26.942Z,8.58
2017-10-19T21:44:55.995Z,8.56
2017-10-19T21:47:25.048Z,8.46
2017-10-19T21:49:54.068Z,8.37
2017-10-19T21:52:23.096Z,8.41
2017-10-19T21:54:52.115Z,8.36
2017-10-19T21:57:21.155Z,8.45
2017-10-19T21:59:50.188Z,8.38
2017-10-19T22:02:19.218Z,8.30
2017-10-19T22:04:48.283Z,8.24
2017-10-19T22:07:18.305Z,8.20
2017-10-19T22:09:47.338Z,8.17
2017-10-19T22:12:16.397Z,8.17
2017-10-19T22:14:45.444Z,8.22
2017-10-19T22:17:14.477Z,8.19
2017-10-19T22:19:43.509Z,8.20
2017-10-19T22:22:12.542Z,8.17
2017-10-19T22:24:41.626Z,8.15
2017-10-19T22:27:10.664Z,8.14
2017-10-19T22:29:39.711Z,8.07
2017-10-19T22:32:09.651Z,8.02
2017-10-19T22:34:52.066Z,8.02
2017-10-19T22:37:21.327Z,8.02
2017-10-19T22:39:50.365Z,8.04
2017-10-19T22:42:19.405Z,7.98
2017-10-19T22:44:48.455Z,7.93
2017-10-19T22:47:17.515Z,7.96
2017-10-19T22:49:46.568Z,8.03
2017-10-19T22:52:15.614Z,7.95
2017-10-19T22:54:44.686Z,7.91
2017-10-19T22:57:14.728Z,7.78
2017-10-19T22:59:43.774Z,7.67
2017-10-19T23:02:12.816Z,7.62
2017-10-19T23:04:41.857Z,7.55
2017-10-19T23:07:10.898Z,7.64
2017-10-19T23:09:39.970Z,7.62
2017-10-19T23:12:09.944Z,7.60
2017-10-19T23:14:38.978Z,7.64
2017-10-19T23:17:08.030Z,7.62
2017-10-19T23:19:37.080Z,7.59
2017-10-19T23:22:07.054Z,7.59
2017-10-19T23:24:36.086Z,7.55
2017-10-19T23:27:05.151Z,7.51
2017-10-19T23:29:34.203Z,7.51
2017-10-19T23:32:03.243Z,7.43
2017-10-19T23:34:32.290Z,7.37
2017-10-19T23:37:01.339Z,7.35
2017-10-19T23:39:30.366Z,7.25
2017-10-19T23:41:59.397Z,7.15
2017-10-19T23:44:28.440Z,7.02
2017-10-19T23:46:57.480Z,6.96
2017-10-19T23:49:26.528Z,6.95
2017-10-19T23:51:55.579Z,7.09
2017-10-19T23:54:24.627Z,7.05
2017-10-19T23:56:53.684Z,7.02
2017-10-19T23:59:22.728Z,7.01
